createdAt,value
2017-10-25T00:00:42.459Z,14.15
2017-10-25T00:03:08.663Z,13.45
2017-10-25T00:05:35.479Z,13.93
2017-10-25T00:08:01.977Z,11.73
2017-10-25T00:10:28.280Z,14.90
2017-10-25T00:12:55.839Z,14.45
2017-10-25T00:15:23.317Z,13.30
2017-10-25T00:17:49.788Z,11.80
2017-10-25T00:20:16.765Z,11.55
2017-10-25T00:22:42.963Z,13.65
2017-10-25T00:25:09.686Z,14.73
2017-10-25T00:27:36.450Z,13.02
2017-10-25T00:30:04.080Z,15.50
2017-10-25T00:32:30.286Z,8.55
2017-10-25T00:34:56.503Z,12.35
2017-10-25T00:37:23.997Z,12.85
2017-10-25T00:39:50.636Z,11.23
2017-10-25T00:42:17.669Z,14.20
2017-10-25T00:44:43.894Z,10.77
2017-10-25T00:47:10.640Z,10.75
2017-10-25T00:49:37.960Z,10.63
2017-10-25T00:52:04.939Z,10.63
2017-10-25T00:54:32.692Z,10.32
2017-10-25T00:56:59.450Z,10.30
2017-10-25T00:59:26.254Z,12.00
2017-10-25T01:01:53.219Z,13.80
2017-10-25T01:04:20.412Z,12.05
2017-10-25T01:06:46.824Z,14.15
2017-10-25T01:09:13.569Z,10.13
2017-10-25T01:11:41.088Z,10.05
2017-10-25T01:14:09.056Z,9.20
2017-10-25T01:16:35.308Z,10.25
2017-10-25T01:19:01.523Z,13.88
2017-10-25T01:21:28.333Z,13.20
2017-10-25T01:23:54.529Z,12.07
2017-10-25T01:26:20.889Z,11.63
2017-10-25T01:28:47.605Z,12.20
2017-10-25T01:31:15.200Z,11.45
2017-10-25T01:33:42.178Z,12.75
2017-10-25T01:36:10.636Z,10.40
2017-10-25T01:38:37.292Z,9.52
2017-10-25T01:41:04.856Z,12.98
2017-10-25T01:43:31.500Z,12.40
2017-10-25T01:45:59.906Z,11.93
2017-10-25T01:48:26.698Z,10.02
2017-10-25T01:50:53.425Z,8.82
2017-10-25T01:53:19.732Z,9.13
2017-10-25T01:55:46.652Z,6.75
2017-10-25T01:58:14.526Z,10.70
2017-10-25T02:00:41.360Z,7.82
2017-10-25T02:03:08.101Z,6.80
2017-10-25T02:05:34.997Z,12.25
2017-10-25T02:08:01.763Z,15.05
2017-10-25T02:10:28.105Z,11.12
2017-10-25T02:12:54.539Z,12.13
2017-10-25T02:15:20.727Z,8.93
2017-10-25T02:17:48.457Z,8.23
2017-10-25T02:20:14.947Z,10.57
2017-10-25T02:22:41.784Z,11.00
2017-10-25T02:25:08.458Z,9.63
2017-10-25T02:27:35.458Z,12.00
2017-10-25T02:30:01.701Z,11.57
2017-10-25T02:32:28.434Z,11.38
2017-10-25T02:34:55.120Z,11.38
2017-10-25T02:37:22.097Z,11.77
2017-10-25T02:39:49.986Z,11.43
2017-10-25T02:42:16.178Z,10.32
2017-10-25T02:44:43.124Z,10.63
2017-10-25T02:47:10.478Z,9.98
2017-10-25T02:49:37.387Z,11.40
2017-10-25T02:52:04.596Z,9.23
2017-10-25T02:54:31.338Z,9.07
2017-10-25T02:56:58.523Z,8.82
2017-10-25T02:59:24.703Z,11.20
2017-10-25T03:01:51.554Z,9.65
2017-10-25T03:04:19.232Z,10.43
2017-10-25T03:06:46.442Z,6.87
2017-10-25T03:09:13.421Z,9.30
2017-10-25T03:11:40.384Z,10.40
2017-10-25T03:14:06.836Z,12.30
2017-10-25T03:16:33.674Z,10.90
2017-10-25T03:19:00.502Z,10.75
2017-10-25T03:21:27.255Z,12.20
2017-10-25T03:23:54.072Z,10.88
2017-10-25T03:26:20.333Z,12.43
2017-10-25T03:28:47.080Z,9.95
2017-10-25T03:31:13.263Z,12.80
2017-10-25T03:33:39.476Z,10.65
2017-10-25T03:36:05.710Z,10.20
2017-10-25T03:38:32.474Z,9.93
2017-10-25T03:40:58.691Z,9.95
2017-10-25T03:43:25.439Z,10.55
2017-10-25T03:45:52.679Z,10.30
2017-10-25T03:48:19.886Z,7.82
2017-10-25T03:50:46.273Z,7.85
2017-10-25T03:53:13.515Z,9.40
2017-10-25T03:55:39.735Z,8.85
2017-10-25T03:58:05.935Z,9.35
2017-10-25T04:00:32.931Z,10.20
2017-10-25T04:02:59.119Z,9.05
2017-10-25T04:05:25.323Z,11.52
2017-10-25T04:07:52.430Z,10.20
2017-10-25T04:10:20.289Z,9.52
2017-10-25T04:12:47.068Z,9.43
2017-10-25T04:15:13.339Z,9.07
2017-10-25T04:17:39.559Z,10.32
2017-10-25T04:20:07.042Z,8.50
2017-10-25T04:22:33.616Z,10.70
2017-10-25T04:24:59.806Z,10.07
2017-10-25T04:27:26.002Z,11.30
2017-10-25T04:29:55.039Z,12.37
2017-10-25T04:32:21.763Z,10.80
2017-10-25T04:34:50.445Z,10.95
2017-10-25T04:37:17.676Z,10.05
2017-10-25T04:39:45.614Z,13.13
2017-10-25T04:42:13.574Z,11.27
2017-10-25T04:44:40.367Z,9.55
2017-10-25T04:47:07.109Z,12.02
2017-10-25T04:49:33.877Z,10.43
2017-10-25T04:52:00.086Z,11.50
2017-10-25T04:54:26.909Z,9.27
2017-10-25T04:56:53.781Z,8.13
2017-10-25T04:59:21.471Z,8.82
2017-10-25T05:01:48.216Z,11.32
2017-10-25T05:04:14.981Z,10.02
2017-10-25T05:06:41.259Z,12.73
2017-10-25T05:09:07.819Z,12.35
2017-10-25T05:11:34.832Z,10.48
2017-10-25T05:14:01.699Z,10.50
2017-10-25T05:16:29.474Z,8.98
2017-10-25T05:18:56.105Z,10.10
2017-10-25T05:21:24.169Z,9.30
2017-10-25T05:23:51.349Z,11.30
2017-10-25T05:26:19.035Z,9.45
2017-10-25T05:28:45.780Z,8.32
2017-10-25T05:31:12.268Z,11.30
2017-10-25T05:33:39.188Z,11.52
2017-10-25T05:36:05.929Z,11.77
2017-10-25T05:38:32.697Z,9.52
2017-10-25T05:40:59.795Z,9.63
2017-10-25T05:43:26.929Z,10.02
2017-10-25T05:45:53.150Z,10.32
2017-10-25T05:48:19.991Z,8.30
2017-10-25T05:50:47.726Z,11.20
2017-10-25T05:53:14.582Z,12.05
2017-10-25T05:55:41.609Z,8.98
2017-10-25T05:58:07.811Z,10.77
2017-10-25T06:00:34.257Z,10.38
2017-10-25T06:03:01.289Z,10.43
2017-10-25T06:05:28.320Z,11.02
2017-10-25T06:07:54.555Z,10.52
2017-10-25T06:10:21.671Z,12.05
2017-10-25T06:12:47.945Z,9.63
2017-10-25T06:15:16.960Z,10.27
2017-10-25T06:17:43.186Z,15.05
2017-10-25T06:20:09.546Z,14.52
2017-10-25T06:22:36.977Z,11.60
2017-10-25T06:25:03.327Z,11.85
2017-10-25T06:27:30.842Z,11.88
2017-10-25T06:29:57.080Z,12.52
2017-10-25T06:32:24.515Z,13.38
2017-10-25T06:34:51.969Z,11.57
2017-10-25T06:37:18.574Z,11.10
2017-10-25T06:39:45.632Z,9.48
2017-10-25T06:42:12.379Z,8.18
2017-10-25T06:44:38.619Z,9.80
2017-10-25T06:47:04.835Z,17.77
2017-10-25T06:49:31.848Z,16.00
2017-10-25T06:51:59.364Z,11.05
2017-10-25T06:54:25.579Z,11.52
2017-10-25T06:56:52.376Z,9.50
2017-10-25T06:59:19.337Z,12.27
2017-10-25T07:01:45.560Z,10.90
2017-10-25T07:04:11.767Z,12.93
2017-10-25T07:06:39.793Z,12.32
2017-10-25T07:09:07.063Z,10.73
2017-10-25T07:11:33.283Z,11.30
2017-10-25T07:13:59.607Z,12.25
2017-10-25T07:16:25.800Z,10.15
2017-10-25T07:18:52.434Z,11.23
2017-10-25T07:21:19.470Z,11.65
2017-10-25T07:23:46.914Z,9.40
2017-10-25T07:26:13.938Z,11.82
2017-10-25T07:28:40.920Z,9.43
2017-10-25T07:31:08.852Z,9.65
2017-10-25T07:33:36.508Z,9.18
2017-10-25T07:36:03.010Z,9.82
2017-10-25T07:38:29.673Z,9.50
2017-10-25T07:40:56.715Z,11.05
2017-10-25T07:43:22.926Z,8.85
2017-10-25T07:45:49.695Z,8.68
2017-10-25T07:48:15.907Z,9.13
2017-10-25T07:50:42.652Z,8.65
2017-10-25T07:53:10.147Z,9.93
2017-10-25T07:55:37.107Z,9.35
2017-10-25T07:58:04.287Z,9.90
2017-10-25T08:00:31.575Z,9.20
2017-10-25T08:02:59.365Z,9.60
2017-10-25T08:05:27.658Z,9.48
2017-10-25T08:07:54.094Z,8.20
2017-10-25T08:10:21.537Z,7.95
2017-10-25T08:12:49.452Z,8.40
2017-10-25T08:15:16.467Z,8.10
2017-10-25T08:17:44.195Z,6.10
2017-10-25T08:20:10.437Z,6.67
2017-10-25T08:22:37.914Z,7.30
2017-10-25T08:25:04.366Z,7.70
2017-10-25T08:27:31.913Z,6.93
2017-10-25T08:29:58.684Z,7.20
2017-10-25T08:32:25.422Z,7.33
2017-10-25T08:34:52.165Z,7.87
2017-10-25T08:37:19.183Z,7.73
2017-10-25T08:39:45.578Z,6.35
2017-10-25T08:42:12.169Z,6.63
2017-10-25T08:44:39.191Z,6.90
2017-10-25T08:47:06.400Z,6.78
2017-10-25T08:49:32.638Z,6.20
2017-10-25T08:52:00.638Z,7.40
2017-10-25T08:54:28.660Z,6.67
2017-10-25T08:56:54.905Z,6.90
2017-10-25T08:59:22.123Z,5.57
2017-10-25T09:01:48.924Z,6.35
2017-10-25T09:04:15.653Z,6.27
2017-10-25T09:06:42.642Z,5.30
2017-10-25T09:09:08.987Z,4.47
2017-10-25T09:11:37.826Z,5.07
2017-10-25T09:14:04.644Z,4.97
2017-10-25T09:16:32.712Z,4.20
2017-10-25T09:19:01.688Z,4.93
2017-10-25T09:21:28.544Z,5.23
2017-10-25T09:23:55.018Z,4.70
2017-10-25T09:26:22.051Z,5.50
2017-10-25T09:28:49.963Z,6.20
2017-10-25T09:31:16.373Z,5.50
2017-10-25T09:33:43.204Z,4.80
2017-10-25T09:36:09.400Z,5.93
2017-10-25T09:38:37.253Z,5.97
2017-10-25T09:41:03.703Z,5.30
2017-10-25T09:43:30.659Z,5.37
2017-10-25T09:45:56.864Z,5.67
2017-10-25T09:48:24.036Z,5.33
2017-10-25T09:50:50.240Z,5.90
2017-10-25T09:53:17.596Z,5.67
2017-10-25T09:55:44.313Z,5.47
2017-10-25T09:58:10.499Z,5.93
2017-10-25T10:00:37.252Z,4.90
2017-10-25T10:03:03.458Z,6.10
2017-10-25T10:05:29.831Z,5.23
2017-10-25T10:07:57.349Z,5.60
2017-10-25T10:10:24.542Z,5.27
2017-10-25T10:12:51.286Z,4.40
2017-10-25T10:15:18.150Z,5.20
2017-10-25T10:17:44.671Z,4.60
2017-10-25T10:20:11.682Z,5.93
2017-10-25T10:22:37.920Z,5.37
2017-10-25T10:25:05.121Z,5.50
2017-10-25T10:27:32.207Z,4.60
2017-10-25T10:29:59.106Z,6.17
2017-10-25T10:32:26.645Z,5.27
2017-10-25T10:34:53.440Z,6.57
2017-10-25T10:37:20.450Z,5.60
2017-10-25T10:39:47.997Z,4.60
2017-10-25T10:42:14.831Z,5.00
2017-10-25T10:44:41.108Z,5.80
2017-10-25T10:47:07.669Z,5.37
2017-10-25T10:49:35.102Z,5.70
2017-10-25T10:52:02.363Z,6.17
2017-10-25T10:54:29.334Z,5.83
2017-10-25T10:56:55.540Z,5.80
2017-10-25T10:59:22.508Z,6.00
2017-10-25T11:01:49.731Z,6.33
2017-10-25T11:04:16.187Z,5.80
2017-10-25T11:06:43.841Z,6.87
2017-10-25T11:09:10.099Z,6.10
2017-10-25T11:11:36.315Z,7.23
2017-10-25T11:14:03.718Z,6.90
2017-10-25T11:16:29.926Z,6.20
2017-10-25T11:18:57.930Z,5.77
2017-10-25T11:21:24.180Z,6.70
2017-10-25T11:23:50.393Z,6.67
2017-10-25T11:26:16.614Z,5.70
2017-10-25T11:28:43.333Z,6.13
2017-10-25T11:31:10.668Z,6.13
2017-10-25T11:33:37.862Z,7.00
2017-10-25T11:36:04.769Z,6.40
2017-10-25T11:38:31.737Z,5.90
2017-10-25T11:40:58.484Z,6.20
2017-10-25T11:43:25.176Z,6.10
2017-10-25T11:45:51.382Z,6.53
2017-10-25T11:48:18.762Z,7.30
2017-10-25T11:50:45.839Z,6.37
2017-10-25T11:53:12.827Z,6.80
2017-10-25T11:55:39.056Z,6.90
2017-10-25T11:58:05.269Z,6.30
2017-10-25T12:00:32.649Z,5.90
2017-10-25T12:02:58.851Z,5.80
2017-10-25T12:05:26.331Z,5.43
2017-10-25T12:07:52.562Z,5.37
2017-10-25T12:10:18.755Z,5.90
2017-10-25T12:12:44.979Z,5.70
2017-10-25T12:15:11.305Z,5.57
2017-10-25T12:17:37.642Z,6.03
2017-10-25T12:20:05.239Z,6.40
2017-10-25T12:22:32.460Z,5.50
2017-10-25T12:24:59.623Z,6.33
2017-10-25T12:27:26.365Z,6.70
2017-10-25T12:29:53.132Z,6.03
2017-10-25T12:32:19.903Z,6.10
2017-10-25T12:34:46.120Z,5.30
2017-10-25T12:37:13.685Z,5.20
2017-10-25T12:39:41.403Z,6.23
2017-10-25T12:42:07.607Z,7.20
2017-10-25T12:44:33.813Z,4.80
2017-10-25T12:47:00.577Z,5.63
2017-10-25T12:49:27.455Z,6.03
2017-10-25T12:51:54.289Z,5.43
2017-10-25T12:54:21.354Z,6.00
2017-10-25T12:56:47.655Z,5.77
2017-10-25T12:59:14.366Z,6.00
2017-10-25T13:01:41.632Z,5.30
2017-10-25T13:04:07.854Z,5.17
2017-10-25T13:06:34.032Z,5.87
2017-10-25T13:09:00.232Z,5.20
2017-10-25T13:18:14.886Z,5.50
2017-10-25T13:20:41.095Z,4.93
2017-10-25T13:23:08.596Z,4.90
2017-10-25T13:25:35.190Z,4.93
2017-10-25T13:28:02.124Z,5.57
2017-10-25T13:30:28.518Z,5.57
2017-10-25T13:32:56.218Z,5.50
2017-10-25T13:35:22.933Z,5.20
2017-10-25T13:37:50.031Z,5.43
2017-10-25T13:40:16.281Z,5.10
2017-10-25T13:42:43.009Z,5.63
2017-10-25T13:45:09.853Z,5.40
2017-10-25T13:47:36.687Z,5.20
2017-10-25T13:50:03.763Z,4.63
2017-10-25T13:52:30.531Z,4.40
2017-10-25T13:54:57.253Z,4.40
2017-10-25T13:57:25.463Z,4.60
2017-10-25T13:59:52.415Z,4.73
2017-10-25T14:02:19.701Z,5.00
2017-10-25T14:04:47.392Z,4.50
2017-10-25T14:07:13.603Z,5.20
2017-10-25T14:09:40.497Z,4.93
2017-10-25T14:12:07.416Z,4.83
2017-10-25T14:14:33.792Z,4.90
2017-10-25T14:17:01.978Z,5.07
2017-10-25T14:19:29.221Z,4.63
2017-10-25T14:21:56.042Z,5.10
2017-10-25T14:24:24.219Z,4.50
2017-10-25T14:27:04.448Z,3.60
2017-10-25T14:29:31.196Z,4.03
2017-10-25T14:31:57.820Z,3.60
2017-10-25T14:34:24.817Z,3.70
2017-10-25T14:36:51.023Z,5.37
2017-10-25T14:39:18.392Z,4.90
2017-10-25T14:41:46.375Z,5.13
2017-10-25T14:44:13.720Z,5.03
2017-10-25T14:46:40.264Z,4.50
2017-10-25T14:49:07.952Z,4.80
2017-10-25T14:51:34.167Z,4.97
2017-10-25T14:54:00.374Z,4.37
2017-10-25T14:56:27.285Z,4.33
2017-10-25T14:58:54.824Z,5.03
2017-10-25T15:01:21.042Z,4.63
2017-10-25T15:03:48.022Z,5.50
2017-10-25T15:06:15.023Z,5.07
2017-10-25T15:08:41.795Z,4.57
2017-10-25T15:11:08.563Z,4.53
2017-10-25T15:13:35.304Z,5.00
2017-10-25T15:16:02.574Z,4.87
2017-10-25T15:18:29.840Z,4.57
2017-10-25T15:20:56.583Z,4.73
2017-10-25T15:23:23.352Z,4.93
2017-10-25T15:25:50.067Z,4.27
2017-10-25T15:28:17.857Z,4.00
2017-10-25T15:30:44.605Z,3.87
2017-10-25T15:33:11.419Z,6.20
2017-10-25T15:35:37.866Z,5.57
2017-10-25T15:38:06.353Z,4.60
2017-10-25T15:40:33.105Z,6.27
2017-10-25T15:42:59.863Z,7.73
2017-10-25T15:45:26.838Z,5.47
2017-10-25T15:47:53.089Z,8.07
2017-10-25T15:50:20.171Z,6.77
2017-10-25T15:52:47.647Z,6.30
2017-10-25T15:55:15.953Z,7.20
2017-10-25T15:57:42.562Z,6.73
2017-10-25T16:00:09.853Z,6.07
2017-10-25T16:02:38.030Z,5.40
2017-10-25T16:05:06.211Z,5.30
2017-10-25T16:07:33.214Z,5.90
2017-10-25T16:09:59.535Z,4.40
2017-10-25T16:12:27.126Z,7.00
2017-10-25T16:14:53.331Z,18.37
2017-10-25T16:17:20.247Z,9.83
2017-10-25T16:19:47.073Z,9.20
2017-10-25T16:22:13.508Z,14.60
2017-10-25T16:24:40.590Z,10.73
2017-10-25T16:27:06.823Z,10.00
2017-10-25T16:29:33.491Z,9.98
2017-10-25T16:32:01.033Z,11.17
2017-10-25T16:34:28.852Z,8.68
2017-10-25T16:36:56.419Z,8.80
2017-10-25T16:39:23.694Z,10.10
2017-10-25T16:41:50.712Z,10.60
2017-10-25T16:44:17.685Z,9.18
2017-10-25T16:46:44.049Z,10.23
2017-10-25T16:49:12.647Z,10.70
2017-10-25T16:51:40.200Z,9.45
2017-10-25T16:54:06.435Z,8.35
2017-10-25T16:56:33.235Z,12.07
2017-10-25T16:59:01.200Z,11.88
2017-10-25T17:01:28.411Z,15.30
2017-10-25T17:03:56.021Z,9.95
2017-10-25T17:06:23.373Z,10.45
2017-10-25T17:08:50.761Z,9.65
2017-10-25T17:11:17.802Z,9.65
2017-10-25T17:13:44.692Z,35.55
2017-10-25T17:16:12.821Z,19.10
2017-10-25T17:18:39.023Z,16.05
2017-10-25T17:21:05.272Z,14.75
2017-10-25T17:23:32.960Z,12.25
2017-10-25T17:25:59.764Z,12.57
2017-10-25T17:28:27.346Z,11.30
2017-10-25T17:30:54.749Z,14.73
2017-10-25T17:33:21.019Z,13.43
2017-10-25T17:35:47.675Z,10.65
2017-10-25T17:38:15.403Z,9.52
2017-10-25T17:40:41.625Z,10.15
2017-10-25T17:43:09.252Z,10.10
2017-10-25T17:45:36.983Z,10.90
2017-10-25T17:48:04.167Z,9.95
2017-10-25T17:50:31.616Z,10.70
2017-10-25T17:52:58.614Z,14.18
2017-10-25T17:55:25.523Z,13.35
2017-10-25T17:57:53.962Z,12.73
2017-10-25T18:00:21.599Z,10.50
2017-10-25T18:02:47.848Z,15.75
2017-10-25T18:05:15.293Z,18.00
2017-10-25T18:07:41.605Z,17.50
2017-10-25T18:10:08.804Z,14.43
2017-10-25T18:12:35.816Z,17.90
2017-10-25T18:15:02.492Z,18.27
2017-10-25T18:17:28.741Z,17.75
2017-10-25T18:19:55.748Z,20.25
2017-10-25T18:22:22.217Z,19.12
2017-10-25T18:24:49.207Z,17.65
2017-10-25T18:27:15.778Z,14.98
2017-10-25T18:29:42.121Z,14.77
2017-10-25T18:32:09.101Z,13.25
2017-10-25T18:34:35.451Z,13.88
2017-10-25T18:37:02.217Z,11.73
2017-10-25T18:39:29.542Z,12.10
2017-10-25T18:41:55.871Z,12.18
2017-10-25T18:44:22.564Z,17.65
2017-10-25T18:46:50.260Z,16.33
2017-10-25T18:49:17.298Z,18.87
2017-10-25T18:51:43.614Z,19.00
2017-10-25T18:54:11.418Z,20.30
2017-10-25T18:56:39.973Z,17.27
2017-10-25T18:59:06.312Z,14.65
2017-10-25T19:01:33.007Z,13.77
2017-10-25T19:04:00.611Z,12.55
2017-10-25T19:06:27.377Z,13.10
2017-10-25T19:08:54.141Z,13.57
2017-10-25T19:11:21.131Z,12.05
2017-10-25T19:13:47.443Z,11.02
2017-10-25T19:16:15.064Z,10.65
2017-10-25T19:18:41.300Z,14.32
2017-10-25T19:21:08.602Z,12.48
2017-10-25T19:23:34.799Z,11.90
2017-10-25T19:26:01.820Z,13.20
2017-10-25T19:28:28.135Z,13.93
2017-10-25T19:30:55.216Z,14.25
2017-10-25T19:33:21.474Z,14.23
2017-10-25T19:35:47.986Z,13.25
2017-10-25T19:38:14.956Z,14.15
2017-10-25T19:40:41.293Z,13.30
2017-10-25T19:43:07.532Z,14.70
2017-10-25T19:45:33.743Z,14.45
2017-10-25T19:48:00.335Z,13.88
2017-10-25T19:50:26.588Z,14.05
2017-10-25T19:52:53.705Z,14.45
2017-10-25T19:55:19.929Z,15.85
2017-10-25T19:57:47.573Z,14.32
2017-10-25T20:00:13.816Z,17.58
2017-10-25T20:02:41.457Z,16.73
2017-10-25T20:05:07.727Z,19.30
2017-10-25T20:07:33.955Z,17.60
2017-10-25T20:10:01.097Z,15.20
2017-10-25T20:12:28.118Z,11.60
2017-10-25T20:14:55.731Z,11.90
2017-10-25T20:17:23.252Z,13.25
2017-10-25T20:19:49.447Z,10.02
2017-10-25T20:22:16.333Z,13.48
2017-10-25T20:24:42.550Z,15.48
2017-10-25T20:27:09.342Z,15.32
2017-10-25T20:29:36.109Z,15.23
2017-10-25T20:32:02.904Z,14.50
2017-10-25T20:34:30.693Z,12.02
2017-10-25T20:36:56.915Z,10.60
2017-10-25T20:39:23.653Z,9.45
2017-10-25T20:41:50.394Z,8.38
2017-10-25T20:44:16.802Z,8.55
2017-10-25T20:46:44.451Z,9.23
2017-10-25T20:49:12.048Z,10.02
2017-10-25T20:51:38.220Z,8.95
2017-10-25T20:54:05.657Z,10.00
2017-10-25T20:56:32.340Z,11.18
2017-10-25T20:59:00.793Z,12.88
2017-10-25T21:01:27.002Z,9.23
2017-10-25T21:03:54.176Z,12.45
2017-10-25T21:06:20.373Z,11.12
2017-10-25T21:08:46.584Z,9.35
2017-10-25T21:11:12.925Z,8.90
2017-10-25T21:13:40.424Z,9.45
2017-10-25T21:16:06.638Z,8.25
2017-10-25T21:18:34.081Z,9.82
2017-10-25T21:21:00.301Z,10.30
2017-10-25T21:23:26.522Z,8.00
2017-10-25T21:25:53.780Z,6.85
2017-10-25T21:28:21.249Z,8.27
2017-10-25T21:30:47.440Z,7.90
2017-10-25T21:33:13.668Z,7.28
2017-10-25T21:35:40.010Z,9.35
2017-10-25T21:38:06.793Z,6.93
2017-10-25T21:40:33.039Z,8.07
2017-10-25T21:43:06.929Z,8.90
2017-10-25T21:45:34.642Z,8.35
2017-10-25T21:48:01.412Z,7.78
2017-10-25T21:50:28.205Z,9.38
2017-10-25T21:52:56.024Z,9.30
2017-10-25T21:55:22.814Z,8.57
2017-10-25T21:57:50.613Z,8.55
2017-10-25T22:00:17.998Z,7.30
2017-10-25T22:02:44.668Z,8.25
2017-10-25T22:05:12.560Z,6.75
2017-10-25T22:07:38.778Z,8.10
2017-10-25T22:10:05.667Z,7.70
2017-10-25T22:12:32.886Z,7.95
2017-10-25T22:14:59.508Z,7.62
2017-10-25T22:17:26.004Z,9.25
2017-10-25T22:19:52.997Z,8.15
2017-10-25T22:22:19.754Z,9.05
2017-10-25T22:24:46.165Z,8.25
2017-10-25T22:27:13.744Z,6.87
2017-10-25T22:29:40.393Z,9.60
2017-10-25T22:32:08.004Z,8.45
2017-10-25T22:34:35.182Z,8.80
2017-10-25T22:37:02.231Z,9.02
2017-10-25T22:39:28.925Z,9.18
2017-10-25T22:41:55.955Z,9.55
2017-10-25T22:44:22.510Z,8.32
2017-10-25T22:46:50.687Z,10.50
2017-10-25T22:49:18.696Z,8.07
2017-10-25T22:51:44.902Z,10.82
2017-10-25T22:54:11.752Z,8.70
2017-10-25T22:56:38.004Z,8.00
2017-10-25T22:59:04.764Z,8.95
2017-10-25T23:01:31.555Z,9.95
2017-10-25T23:03:58.329Z,10.80
2017-10-25T23:06:27.027Z,10.07
2017-10-25T23:08:53.733Z,7.93
2017-10-25T23:11:21.750Z,9.63
2017-10-25T23:13:48.500Z,8.40
2017-10-25T23:16:15.287Z,7.30
2017-10-25T23:18:41.863Z,8.68
2017-10-25T23:21:09.203Z,8.45
2017-10-25T23:23:35.622Z,8.43
2017-10-25T23:26:02.452Z,8.00
2017-10-25T23:28:29.495Z,10.43
2017-10-25T23:30:56.700Z,9.00
2017-10-25T23:33:23.642Z,8.45
2017-10-25T23:35:50.458Z,9.68
2017-10-25T23:38:16.643Z,9.55
2017-10-25T23:40:43.359Z,11.25
2017-10-25T23:43:10.897Z,11.25
2017-10-25T23:45:37.689Z,11.30
2017-10-25T23:48:04.140Z,9.75
2017-10-25T23:50:30.365Z,10.00
2017-10-25T23:52:57.089Z,9.63
2017-10-25T23:55:23.346Z,9.75
2017-10-25T23:57:49.547Z,11.82
